sensor_id;sensor_type;location;lat;lon;timestamp;P1;durP1;ratioP1;P2;durP2;ratioP2
65706;SDS011;52423;43.512;5.220;2023-07-28T00:01:02;16.95;;;5.20;;
65706;SDS011;52423;43.512;5.220;2023-07-28T00:03:27;21.80;;;5.93;;
65706;SDS011;52423;43.512;5.220;2023-07-28T00:05:53;22.80;;;4.70;;
65706;SDS011;52423;43.512;5.220;2023-07-28T00:08:18;18.10;;;5.07;;
65706;SDS011;52423;43.512;5.220;2023-07-28T00:10:44;19.40;;;4.97;;
65706;SDS011;52423;43.512;5.220;2023-07-28T00:13:09;16.70;;;5.40;;
65706;SDS011;52423;43.512;5.220;2023-07-28T00:15:35;15.43;;;4.60;;
65706;SDS011;52423;43.512;5.220;2023-07-28T00:18:00;17.77;;;5.70;;
65706;SDS011;52423;43.512;5.220;2023-07-28T00:20:27;14.27;;;4.18;;
65706;SDS011;52423;43.512;5.220;2023-07-28T00:22:53;21.50;;;5.18;;
65706;SDS011;52423;43.512;5.220;2023-07-28T00:25:18;19.98;;;4.93;;
65706;SDS011;52423;43.512;5.220;2023-07-28T00:27:44;13.48;;;4.45;;
65706;SDS011;52423;43.512;5.220;2023-07-28T00:30:10;12.85;;;4.47;;
65706;SDS011;52423;43.512;5.220;2023-07-28T00:32:36;25.08;;;5.40;;
65706;SDS011;52423;43.512;5.220;2023-07-28T00:35:01;25.08;;;5.45;;
65706;SDS011;52423;43.512;5.220;2023-07-28T00:37:27;21.58;;;6.60;;
65706;SDS011;52423;43.512;5.220;2023-07-28T00:39:52;18.73;;;4.85;;
65706;SDS011;52423;43.512;5.220;2023-07-28T00:42:17;13.57;;;4.03;;
65706;SDS011;52423;43.512;5.220;2023-07-28T00:44:43;19.10;;;4.80;;
65706;SDS011;52423;43.512;5.220;2023-07-28T00:47:08;26.00;;;5.75;;
65706;SDS011;52423;43.512;5.220;2023-07-28T00:49:34;24.35;;;5.97;;
65706;SDS011;52423;43.512;5.220;2023-07-28T00:51:59;34.15;;;6.88;;
65706;SDS011;52423;43.512;5.220;2023-07-28T00:54:25;38.88;;;7.43;;
65706;SDS011;52423;43.512;5.220;2023-07-28T00:56:51;39.08;;;7.93;;
65706;SDS011;52423;43.512;5.220;2023-07-28T00:59:16;45.58;;;7.95;;
65706;SDS011;52423;43.512;5.220;2023-07-28T01:01:42;38.15;;;7.93;;
65706;SDS011;52423;43.512;5.220;2023-07-28T01:04:07;39.55;;;7.05;;
65706;SDS011;52423;43.512;5.220;2023-07-28T01:06:39;40.97;;;8.27;;
65706;SDS011;52423;43.512;5.220;2023-07-28T01:09:13;46.20;;;8.52;;
65706;SDS011;52423;43.512;5.220;2023-07-28T01:14:19;41.47;;;8.07;;
65706;SDS011;52423;43.512;5.220;2023-07-28T01:16:44;43.67;;;9.52;;
65706;SDS011;52423;43.512;5.220;2023-07-28T01:19:10;40.38;;;8.38;;
65706;SDS011;52423;43.512;5.220;2023-07-28T01:21:37;40.15;;;8.82;;
65706;SDS011;52423;43.512;5.220;2023-07-28T01:24:15;31.52;;;8.18;;
65706;SDS011;52423;43.512;5.220;2023-07-28T01:26:45;62.25;;;9.63;;
65706;SDS011;52423;43.512;5.220;2023-07-28T01:29:12;35.63;;;8.07;;
65706;SDS011;52423;43.512;5.220;2023-07-28T01:31:40;34.58;;;7.32;;
65706;SDS011;52423;43.512;5.220;2023-07-28T01:34:05;40.80;;;8.80;;
65706;SDS011;52423;43.512;5.220;2023-07-28T01:36:31;34.70;;;8.02;;
65706;SDS011;52423;43.512;5.220;2023-07-28T01:38:56;30.55;;;6.72;;
65706;SDS011;52423;43.512;5.220;2023-07-28T01:41:21;35.47;;;7.13;;
65706;SDS011;52423;43.512;5.220;2023-07-28T01:43:47;29.55;;;6.88;;
65706;SDS011;52423;43.512;5.220;2023-07-28T01:46:12;27.05;;;6.88;;
65706;SDS011;52423;43.512;5.220;2023-07-28T01:48:38;36.80;;;7.97;;
65706;SDS011;52423;43.512;5.220;2023-07-28T01:51:03;22.40;;;6.18;;
65706;SDS011;52423;43.512;5.220;2023-07-28T01:53:28;33.33;;;6.45;;
65706;SDS011;52423;43.512;5.220;2023-07-28T01:55:54;28.58;;;6.53;;
65706;SDS011;52423;43.512;5.220;2023-07-28T01:58:19;23.70;;;6.43;;
65706;SDS011;52423;43.512;5.220;2023-07-28T02:00:45;27.00;;;6.70;;
65706;SDS011;52423;43.512;5.220;2023-07-28T02:03:11;24.48;;;6.22;;
65706;SDS011;52423;43.512;5.220;2023-07-28T02:05:37;27.90;;;5.60;;
65706;SDS011;52423;43.512;5.220;2023-07-28T02:08:02;16.70;;;6.22;;
65706;SDS011;52423;43.512;5.220;2023-07-28T02:10:28;16.75;;;4.95;;
65706;SDS011;52423;43.512;5.220;2023-07-28T02:12:54;28.92;;;5.45;;
65706;SDS011;52423;43.512;5.220;2023-07-28T02:15:19;17.98;;;4.57;;
65706;SDS011;52423;43.512;5.220;2023-07-28T02:17:45;14.90;;;4.72;;
65706;SDS011;52423;43.512;5.220;2023-07-28T02:20:10;15.60;;;4.53;;
65706;SDS011;52423;43.512;5.220;2023-07-28T02:22:38;20.17;;;3.97;;
65706;SDS011;52423;43.512;5.220;2023-07-28T02:25:04;12.25;;;3.70;;
65706;SDS011;52423;43.512;5.220;2023-07-28T02:27:30;20.15;;;5.95;;
65706;SDS011;52423;43.512;5.220;2023-07-28T02:29:56;5.03;;;2.53;;
65706;SDS011;52423;43.512;5.220;2023-07-28T02:32:21;6.80;;;2.92;;
65706;SDS011;52423;43.512;5.220;2023-07-28T02:34:47;9.13;;;3.08;;
65706;SDS011;52423;43.512;5.220;2023-07-28T02:37:12;7.50;;;2.75;;
65706;SDS011;52423;43.512;5.220;2023-07-28T02:39:39;4.35;;;2.35;;
65706;SDS011;52423;43.512;5.220;2023-07-28T02:42:04;7.38;;;2.47;;
65706;SDS011;52423;43.512;5.220;2023-07-28T02:44:31;4.53;;;2.60;;
65706;SDS011;52423;43.512;5.220;2023-07-28T02:46:56;3.28;;;2.35;;
65706;SDS011;52423;43.512;5.220;2023-07-28T02:49:22;6.18;;;2.42;;
65706;SDS011;52423;43.512;5.220;2023-07-28T02:51:47;8.20;;;2.90;;
65706;SDS011;52423;43.512;5.220;2023-07-28T02:54:13;3.67;;;2.42;;
65706;SDS011;52423;43.512;5.220;2023-07-28T02:56:38;2.90;;;2.25;;
65706;SDS011;52423;43.512;5.220;2023-07-28T02:59:04;9.18;;;2.58;;
65706;SDS011;52423;43.512;5.220;2023-07-28T03:01:30;4.93;;;2.45;;
65706;SDS011;52423;43.512;5.220;2023-07-28T03:04:01;5.63;;;2.53;;
65706;SDS011;52423;43.512;5.220;2023-07-28T03:06:27;5.90;;;2.47;;
65706;SDS011;52423;43.512;5.220;2023-07-28T03:08:53;4.47;;;2.47;;
65706;SDS011;52423;43.512;5.220;2023-07-28T03:11:18;4.25;;;2.45;;
65706;SDS011;52423;43.512;5.220;2023-07-28T03:13:44;3.85;;;2.75;;
65706;SDS011;52423;43.512;5.220;2023-07-28T03:16:09;5.00;;;2.70;;
65706;SDS011;52423;43.512;5.220;2023-07-28T03:18:35;3.95;;;2.60;;
65706;SDS011;52423;43.512;5.220;2023-07-28T03:21:00;4.20;;;2.50;;
65706;SDS011;52423;43.512;5.220;2023-07-28T03:23:26;6.75;;;3.35;;
65706;SDS011;52423;43.512;5.220;2023-07-28T03:25:51;7.97;;;2.70;;
65706;SDS011;52423;43.512;5.220;2023-07-28T03:28:17;4.80;;;2.53;;
65706;SDS011;52423;43.512;5.220;2023-07-28T03:30:42;6.88;;;2.95;;
65706;SDS011;52423;43.512;5.220;2023-07-28T03:33:08;7.38;;;2.90;;
65706;SDS011;52423;43.512;5.220;2023-07-28T03:35:33;4.80;;;3.13;;
65706;SDS011;52423;43.512;5.220;2023-07-28T03:37:58;11.52;;;3.50;;
65706;SDS011;52423;43.512;5.220;2023-07-28T03:40:24;6.13;;;2.97;;
65706;SDS011;52423;43.512;5.220;2023-07-28T03:42:49;6.88;;;3.00;;
65706;SDS011;52423;43.512;5.220;2023-07-28T03:45:15;8.60;;;3.05;;
65706;SDS011;52423;43.512;5.220;2023-07-28T03:47:41;12.13;;;3.22;;
65706;SDS011;52423;43.512;5.220;2023-07-28T03:50:07;8.05;;;3.05;;
65706;SDS011;52423;43.512;5.220;2023-07-28T03:52:32;9.77;;;3.40;;
65706;SDS011;52423;43.512;5.220;2023-07-28T03:54:58;6.88;;;3.42;;
65706;SDS011;52423;43.512;5.220;2023-07-28T03:57:23;8.30;;;3.90;;
65706;SDS011;52423;43.512;5.220;2023-07-28T03:59:49;8.45;;;3.53;;
65706;SDS011;52423;43.512;5.220;2023-07-28T04:02:14;8.80;;;3.33;;
65706;SDS011;52423;43.512;5.220;2023-07-28T04:04:39;8.02;;;3.63;;
65706;SDS011;52423;43.512;5.220;2023-07-28T04:07:05;9.65;;;3.40;;
65706;SDS011;52423;43.512;5.220;2023-07-28T04:09:31;15.38;;;3.67;;
65706;SDS011;52423;43.512;5.220;2023-07-28T04:11:56;13.00;;;3.88;;
65706;SDS011;52423;43.512;5.220;2023-07-28T04:14:22;16.75;;;4.38;;
65706;SDS011;52423;43.512;5.220;2023-07-28T04:16:47;13.88;;;4.30;;
65706;SDS011;52423;43.512;5.220;2023-07-28T04:19:12;9.65;;;3.60;;
65706;SDS011;52423;43.512;5.220;2023-07-28T04:21:38;15.90;;;3.80;;
65706;SDS011;52423;43.512;5.220;2023-07-28T04:24:05;13.10;;;3.70;;
65706;SDS011;52423;43.512;5.220;2023-07-28T04:26:34;11.82;;;3.95;;
65706;SDS011;52423;43.512;5.220;2023-07-28T04:28:59;13.57;;;3.90;;
65706;SDS011;52423;43.512;5.220;2023-07-28T04:31:25;13.13;;;4.32;;
65706;SDS011;52423;43.512;5.220;2023-07-28T04:33:51;15.85;;;4.50;;
65706;SDS011;52423;43.512;5.220;2023-07-28T04:36:16;13.75;;;3.92;;
65706;SDS011;52423;43.512;5.220;2023-07-28T04:38:41;18.50;;;4.25;;
65706;SDS011;52423;43.512;5.220;2023-07-28T04:41:07;11.68;;;4.13;;
65706;SDS011;52423;43.512;5.220;2023-07-28T04:43:32;17.23;;;4.65;;
65706;SDS011;52423;43.512;5.220;2023-07-28T04:45:58;11.90;;;4.10;;
65706;SDS011;52423;43.512;5.220;2023-07-28T04:48:23;16.10;;;4.38;;
65706;SDS011;52423;43.512;5.220;2023-07-28T04:50:48;20.65;;;5.03;;
65706;SDS011;52423;43.512;5.220;2023-07-28T04:53:14;12.52;;;4.32;;
65706;SDS011;52423;43.512;5.220;2023-07-28T04:55:40;15.63;;;4.38;;
65706;SDS011;52423;43.512;5.220;2023-07-28T04:58:05;17.02;;;4.35;;
65706;SDS011;52423;43.512;5.220;2023-07-28T05:00:30;12.25;;;4.25;;
65706;SDS011;52423;43.512;5.220;2023-07-28T05:02:56;11.63;;;3.90;;
65706;SDS011;52423;43.512;5.220;2023-07-28T05:05:21;15.20;;;4.68;;
65706;SDS011;52423;43.512;5.220;2023-07-28T05:07:47;18.65;;;3.85;;
65706;SDS011;52423;43.512;5.220;2023-07-28T05:10:12;16.67;;;4.65;;
65706;SDS011;52423;43.512;5.220;2023-07-28T05:12:38;11.27;;;3.88;;
65706;SDS011;52423;43.512;5.220;2023-07-28T05:15:04;11.63;;;4.13;;
65706;SDS011;52423;43.512;5.220;2023-07-28T05:17:30;12.38;;;4.50;;
65706;SDS011;52423;43.512;5.220;2023-07-28T05:19:56;11.60;;;3.97;;
65706;SDS011;52423;43.512;5.220;2023-07-28T05:22:21;18.10;;;4.00;;
65706;SDS011;52423;43.512;5.220;2023-07-28T05:24:47;15.00;;;4.72;;
65706;SDS011;52423;43.512;5.220;2023-07-28T05:27:12;11.57;;;4.40;;
65706;SDS011;52423;43.512;5.220;2023-07-28T05:29:37;15.60;;;4.65;;
65706;SDS011;52423;43.512;5.220;2023-07-28T05:32:03;14.15;;;4.70;;
65706;SDS011;52423;43.512;5.220;2023-07-28T05:34:29;15.02;;;3.97;;
65706;SDS011;52423;43.512;5.220;2023-07-28T05:36:55;16.23;;;3.95;;
65706;SDS011;52423;43.512;5.220;2023-07-28T05:39:20;10.70;;;4.18;;
65706;SDS011;52423;43.512;5.220;2023-07-28T05:41:46;13.45;;;3.78;;
65706;SDS011;52423;43.512;5.220;2023-07-28T05:44:11;15.77;;;4.18;;
65706;SDS011;52423;43.512;5.220;2023-07-28T05:46:37;16.73;;;3.70;;
65706;SDS011;52423;43.512;5.220;2023-07-28T05:49:02;10.52;;;4.25;;
65706;SDS011;52423;43.512;5.220;2023-07-28T05:51:28;15.70;;;4.32;;
65706;SDS011;52423;43.512;5.220;2023-07-28T05:53:53;15.88;;;3.67;;
65706;SDS011;52423;43.512;5.220;2023-07-28T05:56:19;10.98;;;3.60;;
65706;SDS011;52423;43.512;5.220;2023-07-28T05:58:48;9.30;;;4.22;;
65706;SDS011;52423;43.512;5.220;2023-07-28T06:01:14;14.10;;;3.88;;
65706;SDS011;52423;43.512;5.220;2023-07-28T06:03:40;15.40;;;3.97;;
65706;SDS011;52423;43.512;5.220;2023-07-28T06:06:05;14.10;;;4.22;;
65706;SDS011;52423;43.512;5.220;2023-07-28T06:08:31;9.55;;;4.00;;
65706;SDS011;52423;43.512;5.220;2023-07-28T06:10:56;11.60;;;3.63;;
65706;SDS011;52423;43.512;5.220;2023-07-28T06:13:22;9.38;;;4.25;;
65706;SDS011;52423;43.512;5.220;2023-07-28T06:15:47;9.18;;;3.85;;
65706;SDS011;52423;43.512;5.220;2023-07-28T06:18:13;9.10;;;3.85;;
65706;SDS011;52423;43.512;5.220;2023-07-28T06:20:41;10.60;;;3.90;;
65706;SDS011;52423;43.512;5.220;2023-07-28T06:23:08;9.32;;;3.63;;
65706;SDS011;52423;43.512;5.220;2023-07-28T06:25:33;14.57;;;4.10;;
65706;SDS011;52423;43.512;5.220;2023-07-28T06:27:58;7.53;;;3.85;;
65706;SDS011;52423;43.512;5.220;2023-07-28T06:30:24;9.50;;;3.40;;
65706;SDS011;52423;43.512;5.220;2023-07-28T06:32:49;12.13;;;4.32;;
65706;SDS011;52423;43.512;5.220;2023-07-28T06:35:15;8.90;;;3.45;;
65706;SDS011;52423;43.512;5.220;2023-07-28T06:37:40;9.38;;;3.83;;
65706;SDS011;52423;43.512;5.220;2023-07-28T06:40:06;6.63;;;3.92;;
65706;SDS011;52423;43.512;5.220;2023-07-28T06:42:34;4.82;;;3.20;;
65706;SDS011;52423;43.512;5.220;2023-07-28T06:45:00;9.32;;;3.72;;
65706;SDS011;52423;43.512;5.220;2023-07-28T06:47:27;5.43;;;3.60;;
65706;SDS011;52423;43.512;5.220;2023-07-28T06:49:52;13.68;;;3.53;;
65706;SDS011;52423;43.512;5.220;2023-07-28T06:52:18;10.65;;;3.38;;
65706;SDS011;52423;43.512;5.220;2023-07-28T06:54:43;8.85;;;3.70;;
65706;SDS011;52423;43.512;5.220;2023-07-28T06:57:09;6.25;;;3.42;;
65706;SDS011;52423;43.512;5.220;2023-07-28T06:59:34;5.22;;;2.95;;
65706;SDS011;52423;43.512;5.220;2023-07-28T07:01:59;8.73;;;3.50;;
65706;SDS011;52423;43.512;5.220;2023-07-28T07:04:25;10.20;;;3.30;;
65706;SDS011;52423;43.512;5.220;2023-07-28T07:06:50;3.25;;;2.95;;
65706;SDS011;52423;43.512;5.220;2023-07-28T07:09:16;5.85;;;2.83;;
65706;SDS011;52423;43.512;5.220;2023-07-28T07:11:41;5.38;;;3.13;;
65706;SDS011;52423;43.512;5.220;2023-07-28T07:14:07;9.73;;;3.13;;
65706;SDS011;52423;43.512;5.220;2023-07-28T07:16:33;6.43;;;3.38;;
65706;SDS011;52423;43.512;5.220;2023-07-28T07:18:59;7.90;;;3.40;;
65706;SDS011;52423;43.512;5.220;2023-07-28T07:21:24;3.72;;;3.10;;
65706;SDS011;52423;43.512;5.220;2023-07-28T07:23:51;7.35;;;2.58;;
65706;SDS011;52423;43.512;5.220;2023-07-28T07:26:16;4.15;;;2.70;;
65706;SDS011;52423;43.512;5.220;2023-07-28T07:28:42;3.83;;;2.83;;
65706;SDS011;52423;43.512;5.220;2023-07-28T07:31:16;7.97;;;2.97;;
65706;SDS011;52423;43.512;5.220;2023-07-28T07:33:41;5.15;;;3.42;;
65706;SDS011;52423;43.512;5.220;2023-07-28T07:36:14;6.57;;;3.00;;
65706;SDS011;52423;43.512;5.220;2023-07-28T07:38:43;5.07;;;3.13;;
65706;SDS011;52423;43.512;5.220;2023-07-28T07:41:15;2.80;;;2.60;;
65706;SDS011;52423;43.512;5.220;2023-07-28T07:43:47;7.15;;;3.38;;
65706;SDS011;52423;43.512;5.220;2023-07-28T07:46:14;3.08;;;2.58;;
65706;SDS011;52423;43.512;5.220;2023-07-28T07:48:39;7.00;;;3.13;;
65706;SDS011;52423;43.512;5.220;2023-07-28T07:51:05;5.63;;;3.20;;
65706;SDS011;52423;43.512;5.220;2023-07-28T07:53:31;7.50;;;3.42;;
65706;SDS011;52423;43.512;5.220;2023-07-28T07:55:56;5.18;;;3.30;;
65706;SDS011;52423;43.512;5.220;2023-07-28T07:58:22;6.15;;;3.83;;
65706;SDS011;52423;43.512;5.220;2023-07-28T08:00:47;4.43;;;3.35;;
65706;SDS011;52423;43.512;5.220;2023-07-28T08:03:13;4.82;;;3.30;;
65706;SDS011;52423;43.512;5.220;2023-07-28T08:05:38;3.70;;;2.75;;
65706;SDS011;52423;43.512;5.220;2023-07-28T08:08:04;6.40;;;3.05;;
65706;SDS011;52423;43.512;5.220;2023-07-28T08:10:32;7.20;;;3.55;;
65706;SDS011;52423;43.512;5.220;2023-07-28T08:12:58;6.78;;;3.30;;
65706;SDS011;52423;43.512;5.220;2023-07-28T08:15:24;4.43;;;2.90;;
65706;SDS011;52423;43.512;5.220;2023-07-28T08:17:50;4.20;;;2.88;;
65706;SDS011;52423;43.512;5.220;2023-07-28T08:20:16;3.55;;;2.75;;
65706;SDS011;52423;43.512;5.220;2023-07-28T08:22:41;9.02;;;5.50;;
65706;SDS011;52423;43.512;5.220;2023-07-28T08:25:07;6.13;;;3.13;;
65706;SDS011;52423;43.512;5.220;2023-07-28T08:27:33;6.13;;;3.60;;
65706;SDS011;52423;43.512;5.220;2023-07-28T08:29:58;3.63;;;2.45;;
65706;SDS011;52423;43.512;5.220;2023-07-28T08:32:24;3.55;;;2.40;;
65706;SDS011;52423;43.512;5.220;2023-07-28T08:34:49;7.75;;;3.17;;
65706;SDS011;52423;43.512;5.220;2023-07-28T08:37:15;3.97;;;2.65;;
65706;SDS011;52423;43.512;5.220;2023-07-28T08:39:40;10.05;;;2.88;;
65706;SDS011;52423;43.512;5.220;2023-07-28T08:42:06;7.90;;;3.10;;
65706;SDS011;52423;43.512;5.220;2023-07-28T08:44:32;6.53;;;3.25;;
65706;SDS011;52423;43.512;5.220;2023-07-28T08:46:59;3.90;;;2.83;;
65706;SDS011;52423;43.512;5.220;2023-07-28T08:49:25;6.80;;;3.28;;
65706;SDS011;52423;43.512;5.220;2023-07-28T08:51:51;4.65;;;3.17;;
65706;SDS011;52423;43.512;5.220;2023-07-28T08:54:17;4.75;;;3.28;;
65706;SDS011;52423;43.512;5.220;2023-07-28T08:56:43;7.32;;;5.50;;
65706;SDS011;52423;43.512;5.220;2023-07-28T08:59:09;7.13;;;3.38;;
65706;SDS011;52423;43.512;5.220;2023-07-28T09:01:41;4.40;;;3.33;;
65706;SDS011;52423;43.512;5.220;2023-07-28T09:04:11;4.55;;;2.67;;
65706;SDS011;52423;43.512;5.220;2023-07-28T09:06:37;5.68;;;3.03;;
65706;SDS011;52423;43.512;5.220;2023-07-28T09:09:05;9.73;;;3.60;;
65706;SDS011;52423;43.512;5.220;2023-07-28T09:11:32;6.25;;;4.10;;
65706;SDS011;52423;43.512;5.220;2023-07-28T09:13:59;9.15;;;3.90;;
65706;SDS011;52423;43.512;5.220;2023-07-28T09:16:25;5.55;;;3.75;;
65706;SDS011;52423;43.512;5.220;2023-07-28T09:18:51;4.70;;;2.83;;
65706;SDS011;52423;43.512;5.220;2023-07-28T09:21:30;4.07;;;3.20;;
65706;SDS011;52423;43.512;5.220;2023-07-28T09:23:55;4.65;;;3.10;;
65706;SDS011;52423;43.512;5.220;2023-07-28T09:26:21;8.45;;;2.95;;
65706;SDS011;52423;43.512;5.220;2023-07-28T09:28:46;2.85;;;2.65;;
65706;SDS011;52423;43.512;5.220;2023-07-28T09:31:11;4.30;;;3.10;;
65706;SDS011;52423;43.512;5.220;2023-07-28T09:33:39;3.75;;;2.80;;
65706;SDS011;52423;43.512;5.220;2023-07-28T09:36:09;5.65;;;2.83;;
65706;SDS011;52423;43.512;5.220;2023-07-28T09:38:39;4.47;;;2.55;;
65706;SDS011;52423;43.512;5.220;2023-07-28T09:41:06;4.32;;;3.30;;
65706;SDS011;52423;43.512;5.220;2023-07-28T09:43:37;3.65;;;2.80;;
65706;SDS011;52423;43.512;5.220;2023-07-28T09:46:04;5.40;;;3.10;;
65706;SDS011;52423;43.512;5.220;2023-07-28T09:48:31;4.43;;;2.92;;
65706;SDS011;52423;43.512;5.220;2023-07-28T09:51:17;6.53;;;2.95;;
65706;SDS011;52423;43.512;5.220;2023-07-28T09:53:46;4.75;;;3.08;;
65706;SDS011;52423;43.512;5.220;2023-07-28T09:56:17;9.25;;;2.92;;
65706;SDS011;52423;43.512;5.220;2023-07-28T09:58:51;4.90;;;3.13;;
65706;SDS011;52423;43.512;5.220;2023-07-28T10:01:18;3.85;;;3.08;;
65706;SDS011;52423;43.512;5.220;2023-07-28T10:03:44;3.00;;;2.80;;
65706;SDS011;52423;43.512;5.220;2023-07-28T10:06:10;9.02;;;2.97;;
65706;SDS011;52423;43.512;5.220;2023-07-28T10:08:37;4.05;;;2.53;;
65706;SDS011;52423;43.512;5.220;2023-07-28T10:11:03;4.68;;;2.65;;
65706;SDS011;52423;43.512;5.220;2023-07-28T10:13:33;5.47;;;2.97;;
65706;SDS011;52423;43.512;5.220;2023-07-28T10:16:06;4.15;;;2.58;;
65706;SDS011;52423;43.512;5.220;2023-07-28T10:18:34;3.30;;;2.80;;
65706;SDS011;52423;43.512;5.220;2023-07-28T10:21:05;3.10;;;2.80;;
65706;SDS011;52423;43.512;5.220;2023-07-28T10:23:34;6.50;;;4.15;;
65706;SDS011;52423;43.512;5.220;2023-07-28T10:26:03;5.57;;;2.72;;
65706;SDS011;52423;43.512;5.220;2023-07-28T10:31:03;4.07;;;2.40;;
65706;SDS011;52423;43.512;5.220;2023-07-28T10:35:58;3.97;;;2.55;;
65706;SDS011;52423;43.512;5.220;2023-07-28T10:38:28;7.40;;;3.00;;
65706;SDS011;52423;43.512;5.220;2023-07-28T10:41:13;3.33;;;2.70;;
65706;SDS011;52423;43.512;5.220;2023-07-28T10:43:41;5.50;;;3.47;;
65706;SDS011;52423;43.512;5.220;2023-07-28T10:46:08;4.93;;;2.72;;
65706;SDS011;52423;43.512;5.220;2023-07-28T10:48:45;3.15;;;2.67;;
65706;SDS011;52423;43.512;5.220;2023-07-28T10:51:12;4.35;;;2.70;;
65706;SDS011;52423;43.512;5.220;2023-07-28T10:53:45;5.90;;;3.13;;
65706;SDS011;52423;43.512;5.220;2023-07-28T10:56:14;4.70;;;2.70;;
65706;SDS011;52423;43.512;5.220;2023-07-28T10:58:39;6.03;;;2.78;;
65706;SDS011;52423;43.512;5.220;2023-07-28T11:01:05;8.27;;;2.92;;
65706;SDS011;52423;43.512;5.220;2023-07-28T11:03:30;5.68;;;2.88;;
65706;SDS011;52423;43.512;5.220;2023-07-28T11:05:56;3.15;;;2.85;;
65706;SDS011;52423;43.512;5.220;2023-07-28T11:08:21;3.25;;;2.92;;
65706;SDS011;52423;43.512;5.220;2023-07-28T11:10:48;12.77;;;4.72;;
65706;SDS011;52423;43.512;5.220;2023-07-28T11:13:13;9.15;;;4.30;;
65706;SDS011;52423;43.512;5.220;2023-07-28T11:15:39;4.28;;;2.85;;
65706;SDS011;52423;43.512;5.220;2023-07-28T11:18:04;3.38;;;2.95;;
65706;SDS011;52423;43.512;5.220;2023-07-28T11:20:30;3.42;;;2.53;;
65706;SDS011;52423;43.512;5.220;2023-07-28T11:25:21;8.10;;;4.35;;
65706;SDS011;52423;43.512;5.220;2023-07-28T11:27:48;2.60;;;2.38;;
65706;SDS011;52423;43.512;5.220;2023-07-28T11:30:15;5.05;;;2.80;;
65706;SDS011;52423;43.512;5.220;2023-07-28T11:32:45;4.13;;;2.78;;
65706;SDS011;52423;43.512;5.220;2023-07-28T11:35:12;4.55;;;2.85;;
65706;SDS011;52423;43.512;5.220;2023-07-28T11:37:39;5.22;;;3.00;;
65706;SDS011;52423;43.512;5.220;2023-07-28T11:40:06;3.58;;;2.95;;
65706;SDS011;52423;43.512;5.220;2023-07-28T11:42:39;7.03;;;3.38;;
65706;SDS011;52423;43.512;5.220;2023-07-28T11:45:07;4.53;;;3.20;;
65706;SDS011;52423;43.512;5.220;2023-07-28T11:47:33;7.22;;;3.50;;
65706;SDS011;52423;43.512;5.220;2023-07-28T11:49:58;5.28;;;3.60;;
65706;SDS011;52423;43.512;5.220;2023-07-28T11:52:34;7.28;;;3.55;;
65706;SDS011;52423;43.512;5.220;2023-07-28T11:55:01;6.25;;;3.80;;
65706;SDS011;52423;43.512;5.220;2023-07-28T11:57:29;9.43;;;3.67;;
65706;SDS011;52423;43.512;5.220;2023-07-28T12:00:00;4.35;;;3.40;;
65706;SDS011;52423;43.512;5.220;2023-07-28T12:02:27;4.35;;;3.05;;
65706;SDS011;52423;43.512;5.220;2023-07-28T12:04:54;7.13;;;3.30;;
65706;SDS011;52423;43.512;5.220;2023-07-28T12:07:29;5.40;;;2.95;;
65706;SDS011;52423;43.512;5.220;2023-07-28T12:10:05;12.05;;;3.33;;
65706;SDS011;52423;43.512;5.220;2023-07-28T12:12:40;9.77;;;3.50;;
65706;SDS011;52423;43.512;5.220;2023-07-28T12:15:22;8.30;;;3.33;;
65706;SDS011;52423;43.512;5.220;2023-07-28T12:20:40;14.35;;;4.28;;
65706;SDS011;52423;43.512;5.220;2023-07-28T12:23:18;7.10;;;3.50;;
65706;SDS011;52423;43.512;5.220;2023-07-28T12:25:47;8.48;;;3.65;;
65706;SDS011;52423;43.512;5.220;2023-07-28T12:28:13;7.75;;;3.30;;
65706;SDS011;52423;43.512;5.220;2023-07-28T12:30:39;5.43;;;3.15;;
65706;SDS011;52423;43.512;5.220;2023-07-28T12:33:05;6.90;;;3.30;;
65706;SDS011;52423;43.512;5.220;2023-07-28T12:35:31;6.35;;;3.13;;
65706;SDS011;52423;43.512;5.220;2023-07-28T12:37:59;8.73;;;3.35;;
65706;SDS011;52423;43.512;5.220;2023-07-28T12:40:30;5.45;;;3.25;;
65706;SDS011;52423;43.512;5.220;2023-07-28T12:42:56;8.75;;;3.47;;
65706;SDS011;52423;43.512;5.220;2023-07-28T12:45:23;9.95;;;3.70;;
65706;SDS011;52423;43.512;5.220;2023-07-28T12:47:50;5.32;;;3.22;;
65706;SDS011;52423;43.512;5.220;2023-07-28T12:50:19;6.47;;;3.22;;
65706;SDS011;52423;43.512;5.220;2023-07-28T12:52:49;5.53;;;2.95;;
65706;SDS011;52423;43.512;5.220;2023-07-28T12:55:15;5.60;;;2.92;;
65706;SDS011;52423;43.512;5.220;2023-07-28T12:57:41;7.20;;;3.78;;
65706;SDS011;52423;43.512;5.220;2023-07-28T13:00:07;7.97;;;3.42;;
65706;SDS011;52423;43.512;5.220;2023-07-28T13:02:40;7.05;;;3.38;;
65706;SDS011;52423;43.512;5.220;2023-07-28T13:05:06;4.95;;;2.80;;
65706;SDS011;52423;43.512;5.220;2023-07-28T13:07:32;7.95;;;3.22;;
65706;SDS011;52423;43.512;5.220;2023-07-28T13:09:57;7.30;;;3.40;;
65706;SDS011;52423;43.512;5.220;2023-07-28T13:12:23;5.57;;;3.10;;
65706;SDS011;52423;43.512;5.220;2023-07-28T13:14:48;5.63;;;3.03;;
65706;SDS011;52423;43.512;5.220;2023-07-28T13:17:13;5.85;;;2.72;;
65706;SDS011;52423;43.512;5.220;2023-07-28T13:19:40;8.88;;;2.97;;
65706;SDS011;52423;43.512;5.220;2023-07-28T13:22:05;5.82;;;3.10;;
65706;SDS011;52423;43.512;5.220;2023-07-28T13:24:31;8.27;;;2.85;;
65706;SDS011;52423;43.512;5.220;2023-07-28T13:26:57;6.03;;;2.78;;
65706;SDS011;52423;43.512;5.220;2023-07-28T13:29:23;2.72;;;2.38;;
65706;SDS011;52423;43.512;5.220;2023-07-28T13:31:49;6.28;;;2.75;;
65706;SDS011;52423;43.512;5.220;2023-07-28T13:34:14;4.57;;;2.92;;
65706;SDS011;52423;43.512;5.220;2023-07-28T13:36:39;9.18;;;2.33;;
65706;SDS011;52423;43.512;5.220;2023-07-28T13:39:05;4.25;;;2.83;;
65706;SDS011;52423;43.512;5.220;2023-07-28T13:41:31;7.03;;;2.70;;
65706;SDS011;52423;43.512;5.220;2023-07-28T13:43:56;4.57;;;2.40;;
65706;SDS011;52423;43.512;5.220;2023-07-28T13:46:22;4.10;;;2.50;;
65706;SDS011;52423;43.512;5.220;2023-07-28T13:48:47;5.05;;;2.58;;
65706;SDS011;52423;43.512;5.220;2023-07-28T13:51:13;3.08;;;2.30;;
65706;SDS011;52423;43.512;5.220;2023-07-28T13:53:38;2.63;;;2.30;;
65706;SDS011;52423;43.512;5.220;2023-07-28T13:56:04;11.70;;;2.50;;
65706;SDS011;52423;43.512;5.220;2023-07-28T13:58:29;3.75;;;2.58;;
65706;SDS011;52423;43.512;5.220;2023-07-28T14:00:55;5.63;;;2.80;;
65706;SDS011;52423;43.512;5.220;2023-07-28T14:03:20;2.92;;;2.40;;
65706;SDS011;52423;43.512;5.220;2023-07-28T14:05:45;2.47;;;2.28;;
65706;SDS011;52423;43.512;5.220;2023-07-28T14:08:11;3.25;;;2.35;;
65706;SDS011;52423;43.512;5.220;2023-07-28T14:10:37;2.95;;;2.67;;
65706;SDS011;52423;43.512;5.220;2023-07-28T14:13:03;3.42;;;2.65;;
65706;SDS011;52423;43.512;5.220;2023-07-28T14:15:29;11.77;;;2.72;;
65706;SDS011;52423;43.512;5.220;2023-07-28T14:17:54;2.78;;;2.45;;
65706;SDS011;52423;43.512;5.220;2023-07-28T14:20:20;3.65;;;2.40;;
65706;SDS011;52423;43.512;5.220;2023-07-28T14:22:45;2.40;;;2.20;;
65706;SDS011;52423;43.512;5.220;2023-07-28T14:25:10;2.50;;;2.30;;
65706;SDS011;52423;43.512;5.220;2023-07-28T14:27:36;2.70;;;2.50;;
65706;SDS011;52423;43.512;5.220;2023-07-28T14:30:01;2.95;;;2.30;;
65706;SDS011;52423;43.512;5.220;2023-07-28T14:32:27;5.25;;;2.58;;
65706;SDS011;52423;43.512;5.220;2023-07-28T14:34:52;2.83;;;2.22;;
65706;SDS011;52423;43.512;5.220;2023-07-28T14:37:18;2.30;;;2.20;;
65706;SDS011;52423;43.512;5.220;2023-07-28T14:39:43;3.45;;;2.15;;
65706;SDS011;52423;43.512;5.220;2023-07-28T14:42:09;3.78;;;2.45;;
65706;SDS011;52423;43.512;5.220;2023-07-28T14:44:35;2.92;;;2.38;;
65706;SDS011;52423;43.512;5.220;2023-07-28T14:47:01;2.30;;;2.10;;
65706;SDS011;52423;43.512;5.220;2023-07-28T14:49:26;3.47;;;2.53;;
65706;SDS011;52423;43.512;5.220;2023-07-28T14:51:53;5.05;;;2.65;;